LIRQ Airport Information

Runway Information
Runway 05 Length 5425 ft width 98 ft
Elevation 123 ft Threshold 492 ft Heading 48
Runway 23 Length 5425 ft Width 98 ft
Elevation 132 ft Threshold 2287 ft Heading 228
Airport Frequencies
Type APP Name APP Frequency 126.075 MHZ
Type ATIS Name ATIS Frequency 129.35 MHZ
Type TWR Name FIRENZE TW Frequency 118.3 MHZ
Airport Navaids
Type VOR-DME Name Peretola Frequency 112500 KHZ
Airport Weather Information & NOTAM
ADDS - METARS form results

(0211 UTC 05 December 2021)
Data provider http://aviationweather.gov/metar/data/
 
METAR text: LIRQ 050150Z 22003KT 170V330 9999 BKN040 13/08 Q1003
Conditions at: LIRQ (FIRENZE/PERETOLA, IT) observed 0150 UTC 05 December 2021
Temperature: 13.0°C (55°F)
Dewpoint: 8.0°C (46°F) [RH = 72%]
Pressure (altimeter): 29.62 inches Hg (1003.0 mb)
Winds: from the SW (220 degrees) at 3 MPH (3 knots; 1.5 m/s)
Visibility: 6 or more miles (10+ km)
Ceiling: 4000 feet AGL
Clouds: broken clouds at 4000 feet AGL
Weather: no significant weather observed at this time

METAR text: LIRQ 050120Z 17005KT 110V220 9999 BKN030 13/09 Q1003
Conditions at: LIRQ (FIRENZE/PERETOLA, IT) observed 0120 UTC 05 December 2021
Temperature: 13.0°C (55°F)
Dewpoint: 9.0°C (48°F) [RH = 77%]
Pressure (altimeter): 29.62 inches Hg (1003.0 mb)
Winds: from the S (170 degrees) at 6 MPH (5 knots; 2.6 m/s)
Visibility: 6 or more miles (10+ km)
Ceiling: 3000 feet AGL
Clouds: broken clouds at 3000 feet AGL
Weather: no significant weather observed at this time

Forecast for: LIRQ (FIRENZE/PERETOLA, IT)
Text: TAF LIRQ 042300Z 0500/0524 24007KT 9999 BKN020
Forecast period: 0000 UTC 05 December 2021 to 0000 UTC 06 December 2021
Forecast type: FROM: standard forecast or significant change
Winds: from the WSW (240 degrees) at 8 MPH (7 knots; 3.6 m/s)
Visibility: 6 or more miles (10+ km)
Ceiling: 2000 feet AGL
Clouds: broken clouds at 2000 feet AGL
Weather: no significant weather forecast for this period
Text: TEMPO 0500/0506 4000 RA
Forecast period: 0000 to 0600 UTC 05 December 2021
Forecast type: TEMPORARY: The following changes expected for less than half the time period
Visibility: 2.49 miles (4.01 km)
Ceiling: unknown
Clouds: missing
Weather: RA  (moderate rain)